Flight Track Log - Related Links

Times and Time Zones

All times are in EDT time to prevent confusion due to time zone crossing. See the UAL33 flight status page for this flight to view local times or setup timezone preferences in your user account.

Time Position Orientation Groundspeed Altitude Reporting Facility
EDT Latitude Longitude Course Direction KTS MPH feet Rate Location/Type
Sun 05:27:58 PM 29.9675 -95.3453 270° West 150 173 500  Level FlightAware ADS-B
Sun 05:28:03 PM 29.9647 -95.3431 146° Southeast 151 174 700 2,400 Climbing FlightAware ADS-B
Sun 05:28:08 PM 29.9621 -95.3400 134° Southeast 153 176 900 2,500 Climbing FlightAware ADS-B
Sun 05:28:15 PM 29.9603 -95.3352 113° Southeast 156 180 1,200 2,727 Climbing FlightAware ADS-B
Sun 05:28:19 PM 29.9599 -95.3313 97° East 161 185 1,400 2,000 Climbing FlightAware ADS-B
Sun 05:28:24 PM 29.9604 -95.3268 83° East 171 197 1,500 1,333 Climbing FlightAware ADS-B
Sun 05:28:28 PM 29.9614 -95.3234 71° East 180 207 1,600 1,714 Climbing FlightAware ADS-B
Sun 05:28:31 PM 29.9626 -95.3206 64° Northeast 188 216 1,700 1,714 Climbing FlightAware ADS-B
Sun 05:28:35 PM 29.9647 -95.3174 53° Northeast 195 224 1,800 1,636 Climbing FlightAware ADS-B
Sun 05:28:42 PM 29.9693 -95.3127 42° Northeast 203 234 2,000 1,765 Climbing FlightAware ADS-B
Sun 05:28:52 PM 29.9793 -95.3080 22° Northeast 222 255 2,300 1,714 Climbing FlightAware ADS-B
Sun 05:28:56 PM 29.9829 -95.3074 North 233 268 2,400 2,250 Climbing FlightAware ADS-B
Sun 05:29:00 PM 29.9871 -95.3070 North 239 275 2,600 2,500 Climbing FlightAware ADS-B
Sun 05:29:08 PM 29.9964 -95.3068 North 249 287 2,900 2,000 Climbing FlightAware ADS-B
Sun 05:29:12 PM 30.0019 -95.3072 356° North 255 293 3,000 1,500 Climbing FlightAware ADS-B
Sun 05:29:16 PM 30.0057 -95.3078 352° North 263 303 3,100 2,250 Climbing FlightAware ADS-B
Sun 05:29:20 PM 30.0105 -95.3091 347° North 269 310 3,300 2,250 Climbing FlightAware ADS-B
Sun 05:29:24 PM 30.0156 -95.3111 341° North 274 315 3,400 1,500 Climbing FlightAware ADS-B
Sun 05:29:32 PM 30.0253 -95.3152 340° North 280 322 3,600 1,714 Climbing FlightAware ADS-B
Sun 05:29:38 PM 30.0326 -95.3175 345° North 282 325 3,800 1,200 Climbing FlightAware ADS-B
Sun 05:29:47 PM 30.0444 -95.3189 357° North 283 326 3,900 375 Climbing FlightAware ADS-B
Sun 05:30:10 PM 30.0748 -95.3188 North 281 323 4,000 171 Climbing FlightAware ADS-B
Sun 05:30:22 PM 30.0902 -95.3190 357° North 281 323 4,000  Level FlightAware ADS-B
Sun 05:30:52 PM 30.1271 -95.3353 327° Northwest 286 329 4,000  Level FlightAware ADS-B
Sun 05:30:59 PM 30.1348 -95.3413 326° Northwest 286 329 4,000 2,169 Level FlightAware ADS-B
Sun 05:32:15 PM 30.2193 -95.4064 326° Northwest 296 341 7,000 2,609 Climbing FlightAware ADS-B
Sun 05:32:31 PM 30.2384 -95.4211 326° Northwest 298 343 8,000 3,636 Climbing FlightAware ADS-B
Sun 05:32:48 PM 30.2574 -95.4360 326° Northwest 300 345 9,000 3,273 Climbing FlightAware ADS-B
Sun 05:33:04 PM 30.2756 -95.4500 326° Northwest 303 349 9,800 2,906 Climbing FlightAware ADS-B
Sun 05:36:00 PM 30.5135 -95.6351 326° Northwest 378 435 18,300 2,870 Climbing FlightAware ADS-B
Sun 05:36:08 PM 30.5257 -95.6438 328° Northwest 380 437 18,600 2,769 Climbing FlightAware ADS-B
Sun 05:36:26 PM 30.5550 -95.6623 331° Northwest 384 442 19,500 2,203 Climbing FlightAware ADS-B
Sun 05:37:27 PM 30.6546 -95.7155 335° Northwest 409 471 21,500 1,444 Climbing FlightAware ADS-B
Sun 05:39:33 PM 30.8957 -95.8448 335° Northwest 494 568 24,000 1,183 Climbing FlightAware ADS-B
Sun 05:40:55 PM 31.0740 -95.9410 335° Northwest 526 605 25,600 1,289 Climbing FlightAware ADS-B
Sun 05:41:34 PM 31.1642 -95.9767 344° North 529 609 26,600 1,371 Climbing FlightAware ADS-B
Sun 05:42:05 PM 31.2380 -95.9945 348° North 532 612 27,200 1,543 Climbing FlightAware ADS-B
Sun 05:42:44 PM 31.3315 -96.0165 349° North 530 610 28,400 1,922 Climbing FlightAware ADS-B
Sun 05:43:48 PM 31.4853 -96.0524 349° North 523 602 30,500 1,812 Climbing FlightAware ADS-B
Sun 05:45:13 PM 31.6861 -96.0996 349° North 520 598 32,900 1,714 Climbing FlightAware ADS-B
Sun 05:45:26 PM 31.7163 -96.1061 350° North 517 595 33,300 1,684 Climbing FlightAware ADS-B
Sun 05:46:10 PM 31.8193 -96.0926 17° North 498 573 34,500 1,700 Climbing FlightAware ADS-B
Sun 05:46:26 PM 31.8514 -96.0756 24° Northeast 492 566 35,000 1,826 Climbing FlightAware ADS-B
Sun 05:46:33 PM 31.8650 -96.0660 31° Northeast 489 563 35,200 1,622 Climbing FlightAware ADS-B
Sun 05:47:03 PM 31.9191 -96.0171 37° Northeast 484 557 36,000 1,385 Climbing FlightAware ADS-B
Sun 05:48:04 PM 32.0248 -95.9173 39° Northeast 484 557 37,300 1,121 Climbing FlightAware ADS-B
Sun 05:48:50 PM 32.1071 -95.8404 38° Northeast 486 559 38,000 906 Climbing FlightAware ADS-B
Sun 05:49:50 PM 32.2121 -95.7417 38° Northeast 490 564 38,900 766 Climbing FlightAware ADS-B
Sun 05:50:24 PM 32.2760 -95.6910 34° Northeast 491 565 39,200 706 Climbing FlightAware ADS-B
Sun 05:50:58 PM 32.3470 -95.6500 26° Northeast 499 574 39,700 690 Climbing FlightAware ADS-B
Sun 05:51:51 PM 32.4615 -95.6001 20° North 500 575 40,200 643 Climbing FlightAware ADS-B
Sun 05:52:22 PM 32.5280 -95.5710 20° North 497 572 40,600 764 Climbing FlightAware ADS-B
Sun 05:52:46 PM 32.5803 -95.5483 20° North 495 570 40,900 189 Climbing FlightAware ADS-B
Sun 05:54:29 PM 32.7990 -95.4530 20° North 489 563 41,000 41 Climbing FlightAware ADS-B
Sun 05:55:11 PM 32.8880 -95.4140 20° North 486 559 41,000  Level FlightAware ADS-B
Sun 05:55:54 PM 32.9810 -95.3730 20° North 485 558 41,000  Level FlightAware ADS-B
Sun 05:56:35 PM 33.0630 -95.3370 20° North 486 559 41,000  Level FlightAware ADS-B
Sun 05:57:15 PM 33.1470 -95.3000 20° North 485 558 41,000  Level FlightAware ADS-B
Sun 05:57:57 PM 33.2390 -95.2590 20° North 488 562 41,000  Level FlightAware ADS-B
Sun 05:58:41 PM 33.3300 -95.2190 20° North 487 560 41,000  Level FlightAware ADS-B
Sun 05:58:58 PM 33.3698 -95.2011 21° North 488 562 41,000  Level FlightAware ADS-B
Sun 05:59:56 PM 33.4910 -95.1470 20° North 482 555 41,000  Level FlightAware ADS-B
Sun 06:00:41 PM 33.5840 -95.1060 20° North 476 548 41,000  Level FlightAware ADS-B
Sun 06:01:21 PM 33.6670 -95.0690 20° North 476 548 41,000  Level FlightAware ADS-B
Sun 06:02:01 PM 33.7500 -95.0310 21° North 475 547 41,000  Level FlightAware ADS-B
Sun 06:02:46 PM 33.8410 -94.9900 21° North 476 548 41,000  Level FlightAware ADS-B
Sun 06:03:28 PM 33.9250 -94.9530 20° North 477 549 41,000  Level FlightAware ADS-B
Sun 06:04:27 PM 34.0390 -94.9020 20° North 477 549 41,000  Level FlightAware ADS-B
Sun 06:05:04 PM 34.1050 -94.8730 20° North 477 549 41,000  Level FlightAware ADS-B
Sun 06:05:46 PM 34.2130 -94.8220 21° North 482 555 41,000  Level FlightAware ADS-B
Sun 06:06:28 PM 34.3000 -94.7830 20° North 485 558 41,000  Level FlightAware ADS-B
Sun 06:07:12 PM 34.3950 -94.7390 21° North 485 558 41,000  Level FlightAware ADS-B
Sun 06:07:54 PM 34.4820 -94.7000 20° North 486 559 41,000  Level FlightAware ADS-B
Sun 06:08:26 PM 34.5490 -94.6690 21° North 484 557 41,000  Level FlightAware ADS-B
Sun 06:09:09 PM 34.6410 -94.6270 21° North 484 557 41,000  Level FlightAware ADS-B
Sun 06:09:54 PM 34.7340 -94.5840 21° North 482 555 41,000  Level FlightAware ADS-B
Sun 06:10:25 PM 34.7990 -94.5540 21° North 482 555 41,000  Level FlightAware ADS-B
Sun 06:11:38 PM 34.9410 -94.4890 21° North 483 556 41,000  Level FlightAware ADS-B
Sun 06:12:16 PM 35.0310 -94.4470 21° North 484 557 41,000  Level FlightAware ADS-B
Sun 06:12:56 PM 35.1120 -94.4090 21° North 484 557 41,000  Level FlightAware ADS-B
Sun 06:13:36 PM 35.1980 -94.3700 20° North 487 560 41,000  Level FlightAware ADS-B
Sun 06:14:12 PM 35.2710 -94.3350 21° North 489 563 41,000  Level FlightAware ADS-B
Sun 06:14:54 PM 35.3640 -94.2920 21° North 485 558 41,000  Level FlightAware ADS-B
Sun 06:16:18 PM 35.5150 -94.2210 21° North 483 556 41,000  Level FlightAware ADS-B
Sun 06:18:11 PM 35.7480 -94.1110 21° North 478 550 41,000  Level FlightAware ADS-B
Sun 06:18:58 PM 35.8710 -94.0530 21° North 479 551 41,000  Level FlightAware ADS-B
Sun 06:19:42 PM 35.9630 -94.0090 21° North 481 554 41,000  Level FlightAware ADS-B
Sun 06:20:22 PM 36.0450 -93.9700 21° North 478 550 41,000  Level FlightAware ADS-B
Sun 06:21:06 PM 36.1360 -93.9270 21° North 473 544 41,000  Level FlightAware ADS-B
Sun 06:21:46 PM 36.2160 -93.8890 21° North 473 544 41,000  Level FlightAware ADS-B
Sun 06:22:30 PM 36.3080 -93.8450 21° North 474 545 41,000  Level FlightAware ADS-B
Sun 06:23:11 PM 36.3900 -93.8050 21° North 477 549 41,000  Level FlightAware ADS-B
Sun 06:23:52 PM 36.4750 -93.7640 21° North 476 548 41,000  Level FlightAware ADS-B
Sun 06:24:36 PM 36.5660 -93.7200 21° North 472 543 41,000  Level FlightAware ADS-B
Sun 06:25:16 PM 36.6490 -93.6800 21° North 470 541 41,000  Level FlightAware ADS-B
Sun 06:26:00 PM 36.7360 -93.6380 21° North 470 541 41,000  Level FlightAware ADS-B
Sun 06:26:36 PM 36.8100 -93.6020 21° North 469 540 41,000  Level FlightAware ADS-B
Sun 06:27:22 PM 36.9020 -93.5570 21° North 468 539 41,000  Level FlightAware ADS-B
Sun 06:28:02 PM 36.9840 -93.5170 21° North 467 537 41,000  Level FlightAware ADS-B
Sun 06:28:46 PM 37.0720 -93.4740 21° North 465 535 41,000  Level FlightAware ADS-B
Sun 06:29:30 PM 37.1590 -93.4310 21° North 464 534 41,000  Level FlightAware ADS-B
Sun 06:30:08 PM 37.2360 -93.3930 21° North 465 535 41,000  Level FlightAware ADS-B
Sun 06:30:54 PM 37.3280 -93.3470 22° Northeast 465 535 41,000  Level FlightAware ADS-B
Sun 06:31:27 PM 37.3890 -93.3040 29° Northeast 469 540 41,000  Level FlightAware ADS-B
Sun 06:32:08 PM 37.4610 -93.2370 36° Northeast 470 541 41,000  Level FlightAware ADS-B
Sun 06:32:52 PM 37.5390 -93.1650 36° Northeast 471 542 41,000  Level FlightAware ADS-B
Sun 06:33:32 PM 37.6090 -93.1010 36° Northeast 473 544 41,000  Level FlightAware ADS-B
Sun 06:34:14 PM 37.6830 -93.0310 37° Northeast 469 540 41,000  Level FlightAware ADS-B
Sun 06:34:58 PM 37.7600 -92.9600 36° Northeast 467 537 41,000  Level FlightAware ADS-B
Sun 06:35:38 PM 37.8260 -92.8980 37° Northeast 469 540 41,000  Level FlightAware ADS-B
Sun 06:36:18 PM 37.8980 -92.8310 36° Northeast 471 542 41,000  Level FlightAware ADS-B
Sun 06:36:54 PM 37.9610 -92.7720 36° Northeast 471 542 41,000  Level FlightAware ADS-B
Sun 06:37:40 PM 38.0420 -92.6960 36° Northeast 473 544 41,000  Level FlightAware ADS-B
Sun 06:38:13 PM 38.0980 -92.6430 37° Northeast 476 548 41,000  Level FlightAware ADS-B
Sun 06:38:52 PM 38.1700 -92.5750 37° Northeast 478 550 41,000  Level FlightAware ADS-B
Sun 06:39:38 PM 38.2480 -92.5010 37° Northeast 476 548 41,000  Level FlightAware ADS-B
Sun 06:40:15 PM 38.3120 -92.4400 37° Northeast 477 549 41,000  Level FlightAware ADS-B
Sun 06:41:19 PM 38.4180 -92.3410 36° Northeast 478 550 41,000  Level FlightAware ADS-B
Sun 06:41:56 PM 38.4740 -92.2890 36° Northeast 478 550 41,000  Level FlightAware ADS-B
Sun 06:42:34 PM 38.5600 -92.2040 38° Northeast 482 555 41,000  Level FlightAware ADS-B
Sun 06:43:24 PM 38.6460 -92.1230 36° Northeast 482 555 41,000  Level FlightAware ADS-B
Sun 06:44:27 PM 38.7420 -92.0330 36° Northeast 482 555 41,000  Level FlightAware ADS-B
Sun 06:45:46 PM 38.8870 -91.8890 38° Northeast 481 554 41,000  Level FlightAware ADS-B
Sun 06:46:28 PM 38.9780 -91.8010 37° Northeast 482 555 41,000  Level FlightAware ADS-B
Sun 06:47:22 PM 39.0650 -91.7160 37° Northeast 481 554 41,000  Level FlightAware ADS-B
Sun 06:48:10 PM 39.1370 -91.6450 37° Northeast 481 554 41,000  Level FlightAware ADS-B
Sun 06:48:43 PM 39.2100 -91.5740 37° Northeast 478 550 41,000  Level FlightAware ADS-B
Sun 06:49:26 PM 39.2930 -91.4920 37° Northeast 480 552 41,000 -282 Level FlightAware ADS-B
Sun 06:50:08 PM 39.3660 -91.4210 37° Northeast 480 552 40,600 -1,105 Descending FlightAware ADS-B
Sun 06:50:42 PM 39.4280 -91.3590 38° Northeast 482 555 39,600 -971 Descending FlightAware ADS-B
Sun 06:51:16 PM 39.4800 -91.3090 37° Northeast 483 556 39,500 -1,500 Descending FlightAware ADS-B
Sun 06:52:02 PM 39.5690 -91.2190 38° Northeast 489 563 37,600 -1,957 Descending FlightAware ADS-B
Sun 06:52:48 PM 39.6530 -91.1360 37° Northeast 491 565 36,500 -1,425 Descending FlightAware ADS-B
Sun 06:53:22 PM 39.7120 -91.0760 38° Northeast 493 567 35,700 -1,125 Descending FlightAware ADS-B
Sun 06:54:08 PM 39.7990 -90.9900 37° Northeast 498 573 35,000 -587 Descending FlightAware ADS-B
Sun 06:54:54 PM 39.8810 -90.9070 38° Northeast 496 571 34,800 -933 Descending FlightAware ADS-B
Sun 06:55:38 PM 39.9620 -90.8250 38° Northeast 497 572 33,600 -1,286 Descending FlightAware ADS-B
Sun 06:56:18 PM 40.0310 -90.7550 38° Northeast 490 564 33,000 -439 Descending FlightAware ADS-B
Sun 06:57:00 PM 40.1070 -90.6780 38° Northeast 481 554 33,000  Level FlightAware ADS-B
Sun 06:57:43 PM 40.1770 -90.6090 37° Northeast 481 554 33,000 -1,200 Level FlightAware ADS-B
Sun 06:58:20 PM 40.2480 -90.5350 38° Northeast 499 574 31,400 -1,663 Descending FlightAware ADS-B
Sun 06:59:06 PM 40.3300 -90.4510 38° Northeast 479 551 30,700 -805 Descending FlightAware ADS-B
Sun 06:59:42 PM 40.3950 -90.3850 38° Northeast 475 547 30,300 -553 Descending FlightAware ADS-B
Sun 07:00:22 PM 40.4630 -90.3150 38° Northeast 479 551 30,000 -474 Descending FlightAware ADS-B
Sun 07:00:58 PM 40.5250 -90.2510 38° Northeast 481 554 29,700 -786 Descending FlightAware ADS-B
Sun 07:01:46 PM 40.6070 -90.1660 38° Northeast 459 528 28,900 -913 Descending FlightAware ADS-B
Sun 07:02:30 PM 40.6800 -90.0900 38° Northeast 447 514 28,300 -857 Descending FlightAware ADS-B
Sun 07:03:10 PM 40.7460 -90.0220 38° Northeast 445 512 27,700 -900 Descending FlightAware ADS-B
Sun 07:03:50 PM 40.8090 -89.9560 38° Northeast 442 509 27,100 -892 Descending FlightAware ADS-B
Sun 07:04:24 PM 40.8640 -89.8990 38° Northeast 437 503 26,600 -805 Descending FlightAware ADS-B
Sun 07:05:12 PM 40.9370 -89.8230 38° Northeast 432 497 26,000 -786 Descending FlightAware ADS-B
Sun 07:05:48 PM 40.9950 -89.7610 39° Northeast 432 497 25,500 -1,286 Descending FlightAware ADS-B
Sun 07:06:36 PM 41.0570 -89.6590 51° Northeast 440 506 24,200 -1,568 Descending FlightAware ADS-B
Sun 07:07:16 PM 41.1000 -89.5700 57° Northeast 434 499 23,200 -1,846 Descending FlightAware ADS-B
Sun 07:07:54 PM 41.1410 -89.4850 57° Northeast 429 494 21,800 -2,049 Descending FlightAware ADS-B
Sun 07:08:38 PM 41.1870 -89.3910 57° Northeast 424 488 20,400 -1,857 Descending FlightAware ADS-B
Sun 07:09:18 PM 41.2290 -89.3030 58° Northeast 418 481 19,200 -1,816 Descending FlightAware ADS-B
Sun 07:09:54 PM 41.2660 -89.2250 58° Northeast 409 471 18,100 -1,846 Descending FlightAware ADS-B
Sun 07:10:36 PM 41.3090 -89.1370 57° Northeast 397 457 16,800 -1,500 Descending FlightAware ADS-B
Sun 07:11:26 PM 41.3450 -89.0600 58° Northeast 389 448 15,800 -1,625 Descending FlightAware ADS-B
Sun 07:12:12 PM 41.3990 -88.9470 57° Northeast 381 438 14,200 -1,837 Descending FlightAware ADS-B
Sun 07:13:04 PM 41.4500 -88.8410 57° Northeast 378 435 12,800 -1,653 Descending FlightAware ADS-B
Sun 07:13:50 PM 41.4920 -88.7520 58° Northeast 362 417 11,500 -1,256 Descending FlightAware ADS-B
Sun 07:14:30 PM 41.5250 -88.6750 60° Northeast 345 397 11,000 -361 Descending FlightAware ADS-B
Sun 07:15:13 PM 41.5570 -88.5940 62° Northeast 355 409 11,000 -71 Level FlightAware ADS-B
Sun 07:15:55 PM 41.5890 -88.5150 62° Northeast 349 402 10,900 -538 Descending FlightAware ADS-B
Sun 07:16:31 PM 41.6190 -88.4490 59° Northeast 322 371 10,300 -1,219 Descending FlightAware ADS-B
Sun 07:16:59 PM 41.6440 -88.4070 51° Northeast 300 345 9,600 -1,714 Descending FlightAware ADS-B
Sun 07:17:27 PM 41.6670 -88.3670 52° Northeast 293 337 8,700 -1,714 Descending FlightAware ADS-B
Sun 07:17:55 PM 41.6910 -88.3260 52° Northeast 296 341 8,000 -1,154 Descending FlightAware ADS-B
Sun 07:18:19 PM 41.7100 -88.2930 52° Northeast 289 333 7,700 -625 Descending FlightAware ADS-B
Sun 07:18:43 PM 41.7300 -88.2600 51° Northeast 282 325 7,500 -625 Descending FlightAware ADS-B
Sun 07:19:07 PM 41.7490 -88.2270 52° Northeast 271 312 7,200 -556 Descending FlightAware ADS-B
Sun 07:19:37 PM 41.7710 -88.1890 52° Northeast 257 296 7,000 -200 Descending FlightAware ADS-B
Sun 07:20:07 PM 41.7930 -88.1520 51° Northeast 246 283 7,000  Level FlightAware ADS-B
Sun 07:20:35 PM 41.8120 -88.1180 53° Northeast 249 287 7,000  Level FlightAware ADS-B
Sun 07:21:03 PM 41.8320 -88.0840 52° Northeast 247 284 7,000  Level FlightAware ADS-B
Sun 07:21:31 PM 41.8500 -88.0500 55° Northeast 247 284 7,000  Level FlightAware ADS-B
Sun 07:21:59 PM 41.8700 -88.0150 52° Northeast 247 284 7,000  Level FlightAware ADS-B
Sun 07:22:27 PM 41.8830 -87.9780 65° Northeast 225 259 7,000  Level FlightAware ADS-B
Sun 07:22:55 PM 41.8840 -87.9390 88° East 223 257 7,000  Level FlightAware ADS-B
Sun 07:23:17 PM 41.8840 -87.9090 90° East 223 257 7,000  Level FlightAware ADS-B
Sun 07:23:43 PM 41.8840 -87.8730 90° East 222 255 7,000  Level FlightAware ADS-B
Sun 07:24:07 PM 41.8840 -87.8410 90° East 215 247 7,000 -462 Level FlightAware ADS-B
Sun 07:24:35 PM 41.8840 -87.8070 90° East 211 243 6,600 -845 Descending FlightAware ADS-B
Sun 07:25:18 PM 41.8840 -87.7490 90° East 208 239 6,000 -896 Descending FlightAware ADS-B
Sun 07:25:42 PM 41.8840 -87.7180 90° East 205 236 5,600 -980 Descending FlightAware ADS-B
Sun 07:26:07 PM 41.8900 -87.6890 74° East 197 227 5,200 -900 Descending FlightAware ADS-B
Sun 07:26:22 PM 41.9000 -87.6810 31° Northeast 188 216 5,000 -1,111 Descending FlightAware ADS-B
Sun 07:26:34 PM 41.9110 -87.6790 North 186 214 4,700 -1,200 Descending FlightAware ADS-B
Sun 07:26:47 PM 41.9220 -87.6790 360° North 187 215 4,500 -1,091 Descending FlightAware ADS-B
Sun 07:27:07 PM 41.9370 -87.6870 338° Northwest 181 208 4,100 -1,125 Descending FlightAware ADS-B
Sun 07:27:19 PM 41.9420 -87.6980 301° West 175 201 3,900 -1,000 Descending FlightAware ADS-B
Sun 07:27:25 PM 41.9430 -87.7050 281° West 173 199 3,800 -1,227 Descending FlightAware ADS-B
Sun 07:28:03 PM 41.9450 -87.7450 274° West 177 204 3,000 -1,455 Descending FlightAware ADS-B
Sun 07:28:31 PM 41.9570 -87.7730 300° West 176 203 2,200 -1,071 Descending FlightAware ADS-B
Sun 07:28:59 PM 41.9650 -87.8010 291° West 174 200 2,000 -857 Descending FlightAware ADS-B
Sun 07:29:27 PM 41.9670 -87.8300 275° West 158 182 1,400 -1,071 Descending FlightAware ADS-B
Sun 07:29:55 PM 41.9690 -87.8550 276° West 150 173 1,000 -824 Descending FlightAware ADS-B
Sun 07:30:18 PM 41.9690 -87.8770 270° West 146 168 700 -400 Descending FlightAware ADS-B
Sun 07:30:55 PM 41.9690 -87.9060 270° West 147 169 600 -162 Descending FlightAware ADS-B

Login

Don't have an account? Register now (free) for customized features, flight alerts, and more!